Station History

Weather Underground - logo

Station Historical Data
Daily Summary for February 19, 2018 Units:  Both    English   Metric
« Previous Day
Next Day »
Daily Weekly Monthly Yearly Custom
  High: Low: Average:
Temperature: 52.7 °F /  11.5 °C 31.8 °F /  -0.1 °C 42.2 °F /  5.7 °C
Dew Point: 34.7 °F /  1.5 °C 24.9 °F /  -3.9 °C 30.5 °F /  -0.8 °C
Humidity: 88 % 35 % 65 %
Wind Speed: 18.4 mph /  29.6 km/h - 1.9 mph /  3.1 km/h
Wind Gust: 18.4 mph /  29.6 km/h - -
Wind:- - West
Pressure: 30.15 in /  1020.9 hPa 29.92 in /  1013.1 hPa -
Precipitation: 0.00 in /  0 mm    
Historical Graphs
 
 
Tabular Data for February 19, 2018
Time Temperature Dew Point Pressure Wind Wind Speed Wind Gust Humidity Rainfall Rate (Hourly)
00:03 45.9 °F /  7.7 °C 33.6 °F /  0.9 °C 29.93 in /  1013.4 hPa WNW 4.6 mph /  7.4 km/h 4.6 mph /  7.4 km/h 62 % 0.00 in /  0 mm
00:08 45.6 °F /  7.6 °C 33.3 °F /  0.7 °C 29.92 in /  1013.1 hPa WNW 3.5 mph /  5.6 km/h 3.5 mph /  5.6 km/h 62 % 0.00 in /  0 mm
00:13 45.5 °F /  7.5 °C 33.2 °F /  0.7 °C 29.93 in /  1013.4 hPa WNW 11.5 mph /  18.5 km/h 11.5 mph /  18.5 km/h 62 % 0.00 in /  0 mm
00:18 45.5 °F /  7.5 °C 33.2 °F /  0.7 °C 29.93 in /  1013.4 hPa WNW 10.4 mph /  16.7 km/h 10.4 mph /  16.7 km/h 62 % 0.00 in /  0 mm
00:23 45.6 °F /  7.6 °C 33.3 °F /  0.7 °C 29.93 in /  1013.4 hPa NW 3.5 mph /  5.6 km/h 3.5 mph /  5.6 km/h 62 % 0.00 in /  0 mm
00:28 45.2 °F /  7.3 °C 33.3 °F /  0.7 °C 29.93 in /  1013.4 hPa NW 4.0 mph /  6.4 km/h 4.0 mph /  6.4 km/h 63 % 0.00 in /  0 mm
00:33 44.8 °F /  7.1 °C 33.4 °F /  0.8 °C 29.93 in /  1013.4 hPa WNW 3.5 mph /  5.6 km/h 3.5 mph /  5.6 km/h 64 % 0.00 in /  0 mm
00:38 44.8 °F /  7.1 °C 33.4 °F /  0.8 °C 29.94 in /  1013.8 hPa NW 4.6 mph /  7.4 km/h 4.6 mph /  7.4 km/h 64 % 0.00 in /  0 mm
00:43 44.6 °F /  7 °C 33.2 °F /  0.7 °C 29.94 in /  1013.8 hPa NW 4.6 mph /  7.4 km/h 4.6 mph /  7.4 km/h 64 % 0.00 in /  0 mm
00:48 44.4 °F /  6.9 °C 33.4 °F /  0.8 °C 29.94 in /  1013.8 hPa NW 4.0 mph /  6.4 km/h 4.0 mph /  6.4 km/h 65 % 0.00 in /  0 mm
00:53 44.2 °F /  6.8 °C 33.2 °F /  0.7 °C 29.94 in /  1013.8 hPa NNW 4.0 mph /  6.4 km/h 4.0 mph /  6.4 km/h 65 % 0.00 in /  0 mm
00:58 44.1 °F /  6.7 °C 33.1 °F /  0.6 °C 29.94 in /  1013.8 hPa NW 4.0 mph /  6.4 km/h 4.0 mph /  6.4 km/h 65 % 0.00 in /  0 mm
01:03 44.4 °F /  6.9 °C 33.4 °F /  0.8 °C 29.94 in /  1013.8 hPa NW 3.5 mph /  5.6 km/h 3.5 mph /  5.6 km/h 65 % 0.00 in /  0 mm
01:08 44.3 °F /  6.8 °C 33.3 °F /  0.7 °C 29.94 in /  1013.8 hPa NW 4.6 mph /  7.4 km/h 4.6 mph /  7.4 km/h 65 % 0.00 in /  0 mm
01:13 44.1 °F /  6.7 °C 33.1 °F /  0.6 °C 29.94 in /  1013.8 hPa NW 1.2 mph /  1.9 km/h 1.2 mph /  1.9 km/h 65 % 0.00 in /  0 mm
01:18 43.8 °F /  6.6 °C 33.2 °F /  0.7 °C 29.94 in /  1013.8 hPa NW 1.2 mph /  1.9 km/h 1.2 mph /  1.9 km/h 66 % 0.00 in /  0 mm
01:24 43.7 °F /  6.5 °C 33.1 °F /  0.6 °C 29.94 in /  1013.8 hPa WNW 1.2 mph /  1.9 km/h   66 % 0.00 in /  0 mm
01:28 43.5 °F /  6.4 °C 33.3 °F /  0.7 °C 29.94 in /  1013.8 hPa WNW 1.2 mph /  1.9 km/h   67 % 0.00 in /  0 mm
01:34 43.3 °F /  6.3 °C 33.1 °F /  0.6 °C 29.95 in /  1014.1 hPa WNW 1.2 mph /  1.9 km/h   67 % 0.00 in /  0 mm
01:39 43.0 °F /  6.1 °C 33.2 °F /  0.7 °C 29.95 in /  1014.1 hPa Calm     68 % 0.00 in /  0 mm
01:44 42.7 °F /  5.9 °C 32.9 °F /  0.5 °C 29.95 in /  1014.1 hPa Calm     68 % 0.00 in /  0 mm
01:49 42.5 °F /  5.8 °C 33.0 °F /  0.6 °C 29.94 in /  1013.8 hPa NNW 1.2 mph /  1.9 km/h   69 % 0.00 in /  0 mm
01:54 42.2 °F /  5.7 °C 32.8 °F /  0.4 °C 29.94 in /  1013.8 hPa Calm     69 % 0.00 in /  0 mm
01:59 41.9 °F /  5.5 °C 33.2 °F /  0.7 °C 29.95 in /  1014.1 hPa Calm     71 % 0.00 in /  0 mm
02:04 41.5 °F /  5.3 °C 32.8 °F /  0.4 °C 29.94 in /  1013.8 hPa Calm     71 % 0.00 in /  0 mm
02:09 41.2 °F /  5.1 °C 32.9 °F /  0.5 °C 29.94 in /  1013.8 hPa Calm     72 % 0.00 in /  0 mm
02:14 41.0 °F /  5 °C 32.7 °F /  0.4 °C 29.94 in /  1013.8 hPa Calm     72 % 0.00 in /  0 mm
02:19 40.7 °F /  4.8 °C 32.4 °F /  0.2 °C 29.94 in /  1013.8 hPa Calm     72 % 0.00 in /  0 mm
02:24 40.2 °F /  4.6 °C 32.2 °F /  0.1 °C 29.94 in /  1013.8 hPa Calm     73 % 0.00 in /  0 mm
02:29 39.9 °F /  4.4 °C 32.6 °F /  0.3 °C 29.94 in /  1013.8 hPa Calm     75 % 0.00 in /  0 mm
02:34 39.9 °F /  4.4 °C 32.6 °F /  0.3 °C 29.95 in /  1014.1 hPa NNW 1.2 mph /  1.9 km/h   75 % 0.00 in /  0 mm
02:39 40.0 °F /  4.4 °C 32.7 °F /  0.4 °C 29.95 in /  1014.1 hPa Calm     75 % 0.00 in /  0 mm
02:44 40.2 °F /  4.6 °C 32.6 °F /  0.3 °C 29.95 in /  1014.1 hPa Calm     74 % 0.00 in /  0 mm
02:49 40.1 °F /  4.5 °C 32.1 °F /  0.1 °C 29.95 in /  1014.1 hPa Calm     73 % 0.00 in /  0 mm
02:54 39.9 °F /  4.4 °C 32.3 °F /  0.2 °C 29.95 in /  1014.1 hPa Calm     74 % 0.00 in /  0 mm
02:59 39.7 °F /  4.3 °C 32.4 °F /  0.2 °C 29.95 in /  1014.1 hPa Calm     75 % 0.00 in /  0 mm
03:04 39.5 °F /  4.2 °C 32.2 °F /  0.1 °C 29.95 in /  1014.1 hPa Calm     75 % 0.00 in /  0 mm
03:09 39.3 °F /  4.1 °C 32.4 °F /  0.2 °C 29.95 in /  1014.1 hPa Calm     76 % 0.00 in /  0 mm
03:14 39.3 °F /  4.1 °C 32.4 °F /  0.2 °C 29.95 in /  1014.1 hPa Calm     76 % 0.00 in /  0 mm
03:19 39.1 °F /  3.9 °C 32.2 °F /  0.1 °C 29.95 in /  1014.1 hPa Calm     76 % 0.00 in /  0 mm
03:24 38.8 °F /  3.8 °C 31.9 °F /  -0.1 °C 29.95 in /  1014.1 hPa Calm     76 % 0.00 in /  0 mm
03:29 38.5 °F /  3.6 °C 31.9 °F /  -0.1 °C 29.94 in /  1013.8 hPa Calm     77 % 0.00 in /  0 mm
03:34 38.3 °F /  3.5 °C 32.0 °F /  0 °C 29.94 in /  1013.8 hPa Calm     78 % 0.00 in /  0 mm
03:39 38.0 °F /  3.3 °C 31.7 °F /  -0.2 °C 29.94 in /  1013.8 hPa Calm     78 % 0.00 in /  0 mm
03:44 37.8 °F /  3.2 °C 31.9 °F /  -0.1 °C 29.94 in /  1013.8 hPa Calm     79 % 0.00 in /  0 mm
03:49 37.6 °F /  3.1 °C 32.0 °F /  0 °C 29.94 in /  1013.8 hPa Calm     80 % 0.00 in /  0 mm
03:54 37.5 °F /  3.1 °C 31.6 °F /  -0.2 °C 29.94 in /  1013.8 hPa Calm     79 % 0.00 in /  0 mm
03:59 37.2 °F /  2.9 °C 31.3 °F /  -0.4 °C 29.94 in /  1013.8 hPa Calm     79 % 0.00 in /  0 mm
04:05 37.1 °F /  2.8 °C 31.8 °F /  -0.1 °C 29.95 in /  1014.1 hPa Calm     81 % 0.00 in /  0 mm
04:10 37.0 °F /  2.8 °C 31.7 °F /  -0.2 °C 29.94 in /  1013.8 hPa Calm     81 % 0.00 in /  0 mm
04:15 36.8 °F /  2.7 °C 31.5 °F /  -0.3 °C 29.94 in /  1013.8 hPa Calm     81 % 0.00 in /  0 mm
04:20 36.7 °F /  2.6 °C 31.4 °F /  -0.3 °C 29.94 in /  1013.8 hPa Calm     81 % 0.00 in /  0 mm
04:25 36.5 °F /  2.5 °C 31.2 °F /  -0.4 °C 29.94 in /  1013.8 hPa Calm     81 % 0.00 in /  0 mm
04:30 36.4 °F /  2.4 °C 31.1 °F /  -0.5 °C 29.94 in /  1013.8 hPa Calm     81 % 0.00 in /  0 mm
04:35 36.2 °F /  2.3 °C 30.9 °F /  -0.6 °C 29.94 in /  1013.8 hPa Calm     81 % 0.00 in /  0 mm
04:40 35.9 °F /  2.2 °C 30.6 °F /  -0.8 °C 29.94 in /  1013.8 hPa Calm     81 % 0.00 in /  0 mm
04:45 35.7 °F /  2.1 °C 30.7 °F /  -0.7 °C 29.94 in /  1013.8 hPa Calm     82 % 0.00 in /  0 mm
04:50 35.6 °F /  2 °C 30.6 °F /  -0.8 °C 29.95 in /  1014.1 hPa Calm     82 % 0.00 in /  0 mm
04:55 35.5 °F /  1.9 °C 30.5 °F /  -0.8 °C 29.95 in /  1014.1 hPa Calm     82 % 0.00 in /  0 mm
05:00 35.3 °F /  1.8 °C 30.4 °F /  -0.9 °C 29.94 in /  1013.8 hPa Calm     82 % 0.00 in /  0 mm
05:05 35.2 °F /  1.8 °C 30.6 °F /  -0.8 °C 29.94 in /  1013.8 hPa Calm     83 % 0.00 in /  0 mm
05:10 35.2 °F /  1.8 °C 30.6 °F /  -0.8 °C 29.95 in /  1014.1 hPa Calm     83 % 0.00 in /  0 mm
05:15 35.2 °F /  1.8 °C 30.3 °F /  -0.9 °C 29.95 in /  1014.1 hPa Calm     82 % 0.00 in /  0 mm
05:20 35.1 °F /  1.7 °C 30.5 °F /  -0.8 °C 29.95 in /  1014.1 hPa Calm     83 % 0.00 in /  0 mm
05:25 34.9 °F /  1.6 °C 30.3 °F /  -0.9 °C 29.95 in /  1014.1 hPa Calm     83 % 0.00 in /  0 mm
05:30 34.8 °F /  1.6 °C 30.2 °F /  -1 °C 29.95 in /  1014.1 hPa Calm     83 % 0.00 in /  0 mm
05:35 34.7 °F /  1.5 °C 30.1 °F /  -1.1 °C 29.95 in /  1014.1 hPa Calm     83 % 0.00 in /  0 mm
05:40 34.6 °F /  1.4 °C 30.3 °F /  -0.9 °C 29.95 in /  1014.1 hPa Calm     84 % 0.00 in /  0 mm
05:45 34.3 °F /  1.3 °C 29.7 °F /  -1.3 °C 29.96 in /  1014.4 hPa Calm     83 % 0.00 in /  0 mm
05:50 33.9 °F /  1.1 °C 29.6 °F /  -1.3 °C 29.96 in /  1014.4 hPa Calm     84 % 0.00 in /  0 mm
05:55 33.6 °F /  0.9 °C 29.3 °F /  -1.5 °C 29.96 in /  1014.4 hPa Calm     84 % 0.00 in /  0 mm
06:00 33.4 °F /  0.8 °C 29.1 °F /  -1.6 °C 29.96 in /  1014.4 hPa Calm     84 % 0.00 in /  0 mm
06:05 33.3 °F /  0.7 °C 29.3 °F /  -1.5 °C 29.96 in /  1014.4 hPa Calm     85 % 0.00 in /  0 mm
06:10 33.2 °F /  0.7 °C 29.2 °F /  -1.6 °C 29.96 in /  1014.4 hPa Calm     85 % 0.00 in /  0 mm
06:15 33.6 °F /  0.9 °C 29.6 °F /  -1.3 °C 29.96 in /  1014.4 hPa Calm     85 % 0.00 in /  0 mm
06:21 34.0 °F /  1.1 °C 29.7 °F /  -1.3 °C 29.96 in /  1014.4 hPa Calm     84 % 0.00 in /  0 mm
06:26 34.0 °F /  1.1 °C 29.7 °F /  -1.3 °C 29.96 in /  1014.4 hPa Calm     84 % 0.00 in /  0 mm
06:31 33.9 °F /  1.1 °C 29.3 °F /  -1.5 °C 29.97 in /  1014.8 hPa Calm     83 % 0.00 in /  0 mm
06:36 33.7 °F /  0.9 °C 29.4 °F /  -1.4 °C 29.97 in /  1014.8 hPa Calm     84 % 0.00 in /  0 mm
06:41 32.9 °F /  0.5 °C 28.0 °F /  -2.2 °C 29.97 in /  1014.8 hPa Calm     82 % 0.00 in /  0 mm
06:46 32.3 °F /  0.2 °C 28.0 °F /  -2.2 °C 29.97 in /  1014.8 hPa Calm     84 % 0.00 in /  0 mm
06:51 31.9 °F /  -0.1 °C 27.9 °F /  -2.3 °C 29.98 in /  1015.1 hPa Calm     85 % 0.00 in /  0 mm
06:56 31.8 °F /  -0.1 °C 28.1 °F /  -2.2 °C 29.98 in /  1015.1 hPa Calm     86 % 0.00 in /  0 mm
07:01 31.9 °F /  -0.1 °C 28.5 °F /  -1.9 °C 29.98 in /  1015.1 hPa Calm     87 % 0.00 in /  0 mm
07:06 32.2 °F /  0.1 °C 29.0 °F /  -1.7 °C 29.98 in /  1015.1 hPa Calm     88 % 0.00 in /  0 mm
07:11 32.6 °F /  0.3 °C 29.4 °F /  -1.4 °C 29.98 in /  1015.1 hPa Calm     88 % 0.00 in /  0 mm
07:16 32.7 °F /  0.4 °C 29.5 °F /  -1.4 °C 29.98 in /  1015.1 hPa Calm     88 % 0.00 in /  0 mm
07:21 32.9 °F /  0.5 °C 29.7 °F /  -1.3 °C 29.98 in /  1015.1 hPa Calm     88 % 0.00 in /  0 mm
07:26 33.5 °F /  0.8 °C 30.3 °F /  -0.9 °C 29.98 in /  1015.1 hPa Calm     88 % 0.00 in /  0 mm
07:31 34.0 °F /  1.1 °C 30.5 °F /  -0.8 °C 29.98 in /  1015.1 hPa Calm     87 % 0.00 in /  0 mm
07:36 34.6 °F /  1.4 °C 31.1 °F /  -0.5 °C 29.98 in /  1015.1 hPa Calm     87 % 0.00 in /  0 mm
07:41 35.8 °F /  2.1 °C 31.7 °F /  -0.2 °C 29.98 in /  1015.1 hPa Calm     85 % 0.00 in /  0 mm
07:46 37.3 °F /  2.9 °C 32.6 °F /  0.3 °C 29.98 in /  1015.1 hPa Calm     83 % 0.00 in /  0 mm
07:51 39.2 °F /  4 °C 33.9 °F /  1.1 °C 29.98 in /  1015.1 hPa Calm     81 % 0.00 in /  0 mm
07:56 40.4 °F /  4.7 °C 34.4 °F /  1.3 °C 29.99 in /  1015.5 hPa Calm     79 % 0.00 in /  0 mm
08:01 41.7 °F /  5.4 °C 34.7 °F /  1.5 °C 29.99 in /  1015.5 hPa Calm     76 % 0.00 in /  0 mm
08:06 42.7 °F /  5.9 °C 34.3 °F /  1.3 °C 29.98 in /  1015.1 hPa Calm     72 % 0.00 in /  0 mm
08:11 43.2 °F /  6.2 °C 34.1 °F /  1.2 °C 29.98 in /  1015.1 hPa Calm     70 % 0.00 in /  0 mm
08:16 43.1 °F /  6.2 °C 33.6 °F /  0.9 °C 29.98 in /  1015.1 hPa Calm     69 % 0.00 in /  0 mm
08:21 42.8 °F /  6 °C 33.3 °F /  0.7 °C 29.98 in /  1015.1 hPa Calm     69 % 0.00 in /  0 mm
08:26 42.9 °F /  6.1 °C 33.4 °F /  0.8 °C 29.99 in /  1015.5 hPa Calm     69 % 0.00 in /  0 mm
08:31 43.2 °F /  6.2 °C 33.7 °F /  0.9 °C 29.99 in /  1015.5 hPa Calm     69 % 0.00 in /  0 mm
08:36 43.4 °F /  6.3 °C 33.9 °F /  1.1 °C 29.99 in /  1015.5 hPa Calm     69 % 0.00 in /  0 mm
08:41 43.7 °F /  6.5 °C 32.7 °F /  0.4 °C 29.99 in /  1015.5 hPa NW 2.3 mph /  3.7 km/h 2.3 mph /  3.7 km/h 65 % 0.00 in /  0 mm
08:46 43.7 °F /  6.5 °C 32.3 °F /  0.2 °C 29.99 in /  1015.5 hPa NNW 2.3 mph /  3.7 km/h 2.3 mph /  3.7 km/h 64 % 0.00 in /  0 mm
08:51 43.7 °F /  6.5 °C 31.9 °F /  -0.1 °C 29.99 in /  1015.5 hPa North 1.2 mph /  1.9 km/h   63 % 0.00 in /  0 mm
08:56 43.8 °F /  6.6 °C 32.4 °F /  0.2 °C 29.99 in /  1015.5 hPa WNW 2.0 mph /  3.2 km/h 2.0 mph /  3.2 km/h 64 % 0.00 in /  0 mm
09:01 43.7 °F /  6.5 °C 31.9 °F /  -0.1 °C 29.99 in /  1015.5 hPa NW 1.2 mph /  1.9 km/h 1.2 mph /  1.9 km/h 63 % 0.00 in /  0 mm
09:06 44.0 °F /  6.7 °C 32.2 °F /  0.1 °C 29.99 in /  1015.5 hPa WNW 3.5 mph /  5.6 km/h 3.5 mph /  5.6 km/h 63 % 0.00 in /  0 mm
09:11 44.5 °F /  6.9 °C 31.9 °F /  -0.1 °C 29.99 in /  1015.5 hPa NW 2.3 mph /  3.7 km/h 2.3 mph /  3.7 km/h 61 % 0.00 in /  0 mm
09:16 44.8 °F /  7.1 °C 32.2 °F /  0.1 °C 30.00 in /  1015.8 hPa WNW 2.3 mph /  3.7 km/h 2.7 mph /  4.3 km/h 61 % 0.00 in /  0 mm
09:22 44.8 °F /  7.1 °C 31.8 °F /  -0.1 °C 30.00 in /  1015.8 hPa NW 3.5 mph /  5.6 km/h 3.5 mph /  5.6 km/h 60 % 0.00 in /  0 mm
09:26 45.1 °F /  7.3 °C 32.0 °F /  0 °C 30.00 in /  1015.8 hPa North 3.0 mph /  4.8 km/h 3.0 mph /  4.8 km/h 60 % 0.00 in /  0 mm
09:32 45.5 °F /  7.5 °C 31.6 °F /  -0.2 °C 30.00 in /  1015.8 hPa West 2.3 mph /  3.7 km/h 2.3 mph /  3.7 km/h 58 % 0.00 in /  0 mm
09:37 45.5 °F /  7.5 °C 29.8 °F /  -1.2 °C 30.00 in /  1015.8 hPa NNE 5.8 mph /  9.3 km/h 5.8 mph /  9.3 km/h 54 % 0.00 in /  0 mm
09:42 45.4 °F /  7.4 °C 30.2 °F /  -1 °C 30.00 in /  1015.8 hPa WNW 3.5 mph /  5.6 km/h 3.5 mph /  5.6 km/h 55 % 0.00 in /  0 mm
09:47 45.5 °F /  7.5 °C 30.3 °F /  -0.9 °C 30.00 in /  1015.8 hPa WNW 5.8 mph /  9.3 km/h 5.8 mph /  9.3 km/h 55 % 0.00 in /  0 mm
09:52 45.4 °F /  7.4 °C 29.3 °F /  -1.5 °C 30.00 in /  1015.8 hPa NNW 5.8 mph /  9.3 km/h 5.8 mph /  9.3 km/h 53 % 0.00 in /  0 mm
09:57 45.4 °F /  7.4 °C 28.8 °F /  -1.8 °C 30.00 in /  1015.8 hPa NW 6.9 mph /  11.1 km/h 6.9 mph /  11.1 km/h 52 % 0.00 in /  0 mm
10:02 45.1 °F /  7.3 °C 29.0 °F /  -1.7 °C 30.00 in /  1015.8 hPa NW 3.5 mph /  5.6 km/h 3.5 mph /  5.6 km/h 53 % 0.00 in /  0 mm
10:07 45.2 °F /  7.3 °C 29.1 °F /  -1.6 °C 30.00 in /  1015.8 hPa North 3.5 mph /  5.6 km/h 3.5 mph /  5.6 km/h 53 % 0.00 in /  0 mm
10:12 45.6 °F /  7.6 °C 29.0 °F /  -1.7 °C 30.00 in /  1015.8 hPa NW 4.0 mph /  6.4 km/h 4.0 mph /  6.4 km/h 52 % 0.00 in /  0 mm
10:17 45.7 °F /  7.6 °C 29.1 °F /  -1.6 °C 30.00 in /  1015.8 hPa NW 5.0 mph /  8 km/h 5.0 mph /  8 km/h 52 % 0.00 in /  0 mm
10:22 46.2 °F /  7.9 °C 30.0 °F /  -1.1 °C 30.01 in /  1016.1 hPa WSW 4.0 mph /  6.4 km/h 4.0 mph /  6.4 km/h 53 % 0.00 in /  0 mm
10:27 46.7 °F /  8.2 °C 29.0 °F /  -1.7 °C 30.01 in /  1016.1 hPa West 3.5 mph /  5.6 km/h 3.5 mph /  5.6 km/h 50 % 0.00 in /  0 mm
10:32 46.9 °F /  8.3 °C 28.7 °F /  -1.8 °C 30.01 in /  1016.1 hPa NW 2.3 mph /  3.7 km/h 2.3 mph /  3.7 km/h 49 % 0.00 in /  0 mm
10:37 47.3 °F /  8.5 °C 29.6 °F /  -1.3 °C 30.01 in /  1016.1 hPa WNW 3.5 mph /  5.6 km/h 3.5 mph /  5.6 km/h 50 % 0.00 in /  0 mm
10:42 47.3 °F /  8.5 °C 29.6 °F /  -1.3 °C 30.01 in /  1016.1 hPa WNW 3.5 mph /  5.6 km/h 3.5 mph /  5.6 km/h 50 % 0.00 in /  0 mm
10:47 47.1 °F /  8.4 °C 29.9 °F /  -1.2 °C 30.00 in /  1015.8 hPa NW 3.5 mph /  5.6 km/h 3.5 mph /  5.6 km/h 51 % 0.00 in /  0 mm
10:52 47.2 °F /  8.4 °C 30.5 °F /  -0.8 °C 30.00 in /  1015.8 hPa WNW 5.8 mph /  9.3 km/h 5.8 mph /  9.3 km/h 52 % 0.00 in /  0 mm
10:57 47.2 °F /  8.4 °C 30.0 °F /  -1.1 °C 30.00 in /  1015.8 hPa WNW 3.5 mph /  5.6 km/h 3.5 mph /  5.6 km/h 51 % 0.00 in /  0 mm
11:02 47.6 °F /  8.7 °C 29.9 °F /  -1.2 °C 30.00 in /  1015.8 hPa NW 3.5 mph /  5.6 km/h 3.5 mph /  5.6 km/h 50 % 0.00 in /  0 mm
11:07 47.8 °F /  8.8 °C 30.5 °F /  -0.8 °C 30.00 in /  1015.8 hPa WNW 4.0 mph /  6.4 km/h 4.0 mph /  6.4 km/h 51 % 0.00 in /  0 mm
11:12 48.1 °F /  8.9 °C 29.3 °F /  -1.5 °C 30.00 in /  1015.8 hPa NW 3.5 mph /  5.6 km/h 3.5 mph /  5.6 km/h 48 % 0.00 in /  0 mm
11:17 48.3 °F /  9.1 °C 30.0 °F /  -1.1 °C 30.00 in /  1015.8 hPa WNW 1.2 mph /  1.9 km/h 1.2 mph /  1.9 km/h 49 % 0.00 in /  0 mm
11:22 49.0 °F /  9.4 °C 29.6 °F /  -1.3 °C 30.00 in /  1015.8 hPa NW 3.5 mph /  5.6 km/h 3.5 mph /  5.6 km/h 47 % 0.00 in /  0 mm
11:27 49.6 °F /  9.8 °C 29.6 °F /  -1.3 °C 30.00 in /  1015.8 hPa NE 3.5 mph /  5.6 km/h 3.5 mph /  5.6 km/h 46 % 0.00 in /  0 mm
11:32 49.8 °F /  9.9 °C 28.7 °F /  -1.8 °C 30.00 in /  1015.8 hPa NW 6.0 mph /  9.7 km/h 6.0 mph /  9.7 km/h 44 % 0.00 in /  0 mm
11:37 49.8 °F /  9.9 °C 28.2 °F /  -2.1 °C 30.00 in /  1015.8 hPa NW 6.9 mph /  11.1 km/h 6.9 mph /  11.1 km/h 43 % 0.00 in /  0 mm
11:42 49.9 °F /  9.9 °C 28.8 °F /  -1.8 °C 30.00 in /  1015.8 hPa WSW 5.8 mph /  9.3 km/h 5.8 mph /  9.3 km/h 44 % 0.00 in /  0 mm
11:47 50.4 °F /  10.2 °C 28.1 °F /  -2.2 °C 30.00 in /  1015.8 hPa NW 4.6 mph /  7.4 km/h 4.6 mph /  7.4 km/h 42 % 0.00 in /  0 mm
11:52 50.4 °F /  10.2 °C 28.7 °F /  -1.8 °C 30.00 in /  1015.8 hPa WNW 3.5 mph /  5.6 km/h 3.5 mph /  5.6 km/h 43 % 0.00 in /  0 mm
11:57 50.3 °F /  10.2 °C 29.2 °F /  -1.6 °C 30.00 in /  1015.8 hPa WNW 3.5 mph /  5.6 km/h 3.5 mph /  5.6 km/h 44 % 0.00 in /  0 mm
12:02 49.1 °F /  9.5 °C 28.1 °F /  -2.2 °C 30.00 in /  1015.8 hPa NW 6.9 mph /  11.1 km/h 6.9 mph /  11.1 km/h 44 % 0.00 in /  0 mm
12:08 48.4 °F /  9.1 °C 28.5 °F /  -1.9 °C 30.00 in /  1015.8 hPa NW 3.5 mph /  5.6 km/h 3.5 mph /  5.6 km/h 46 % 0.00 in /  0 mm
12:13 48.2 °F /  9 °C 28.4 °F /  -2 °C 30.00 in /  1015.8 hPa NW 6.9 mph /  11.1 km/h 6.9 mph /  11.1 km/h 46 % 0.00 in /  0 mm
12:18 48.3 °F /  9.1 °C 27.9 °F /  -2.3 °C 30.00 in /  1015.8 hPa NW 4.0 mph /  6.4 km/h 4.0 mph /  6.4 km/h 45 % 0.00 in /  0 mm
12:23 49.4 °F /  9.7 °C 29.5 °F /  -1.4 °C 29.99 in /  1015.5 hPa NW 4.6 mph /  7.4 km/h 4.6 mph /  7.4 km/h 46 % 0.00 in /  0 mm
12:28 49.6 °F /  9.8 °C 28.0 °F /  -2.2 °C 29.99 in /  1015.5 hPa NW 4.6 mph /  7.4 km/h 4.6 mph /  7.4 km/h 43 % 0.00 in /  0 mm
12:33 49.2 °F /  9.6 °C 28.2 °F /  -2.1 °C 29.99 in /  1015.5 hPa NW 6.9 mph /  11.1 km/h 6.9 mph /  11.1 km/h 44 % 0.00 in /  0 mm
12:38 49.6 °F /  9.8 °C 28.6 °F /  -1.9 °C 29.99 in /  1015.5 hPa NW 3.5 mph /  5.6 km/h 3.5 mph /  5.6 km/h 44 % 0.00 in /  0 mm
12:43 50.2 °F /  10.1 °C 28.0 °F /  -2.2 °C 29.99 in /  1015.5 hPa NW 4.6 mph /  7.4 km/h 4.6 mph /  7.4 km/h 42 % 0.00 in /  0 mm
12:48 50.3 °F /  10.2 °C 27.5 °F /  -2.5 °C 29.99 in /  1015.5 hPa NW 6.9 mph /  11.1 km/h 6.9 mph /  11.1 km/h 41 % 0.00 in /  0 mm
12:53 50.2 °F /  10.1 °C 27.4 °F /  -2.6 °C 29.99 in /  1015.5 hPa NW 6.0 mph /  9.7 km/h 6.0 mph /  9.7 km/h 41 % 0.00 in /  0 mm
12:58 50.4 °F /  10.2 °C 28.7 °F /  -1.8 °C 29.99 in /  1015.5 hPa NW 6.9 mph /  11.1 km/h 6.9 mph /  11.1 km/h 43 % 0.00 in /  0 mm
13:03 50.1 °F /  10.1 °C 28.4 °F /  -2 °C 29.99 in /  1015.5 hPa NNE 3.5 mph /  5.6 km/h 3.5 mph /  5.6 km/h 43 % 0.00 in /  0 mm
13:08 50.3 °F /  10.2 °C 26.9 °F /  -2.8 °C 29.99 in /  1015.5 hPa NW 5.8 mph /  9.3 km/h 5.8 mph /  9.3 km/h 40 % 0.00 in /  0 mm
13:14 50.3 °F /  10.2 °C 28.1 °F /  -2.2 °C 29.98 in /  1015.1 hPa WNW 5.0 mph /  8 km/h 5.0 mph /  8 km/h 42 % 0.00 in /  0 mm
13:19 51.0 °F /  10.6 °C 27.5 °F /  -2.5 °C 29.98 in /  1015.1 hPa NNW 3.5 mph /  5.6 km/h 3.5 mph /  5.6 km/h 40 % 0.00 in /  0 mm
13:24 50.8 °F /  10.4 °C 27.3 °F /  -2.6 °C 29.98 in /  1015.1 hPa WNW 8.1 mph /  13 km/h 8.1 mph /  13 km/h 40 % 0.00 in /  0 mm
13:29 50.5 °F /  10.3 °C 26.4 °F /  -3.1 °C 29.98 in /  1015.1 hPa West 3.5 mph /  5.6 km/h 3.5 mph /  5.6 km/h 39 % 0.00 in /  0 mm
13:34 50.2 °F /  10.1 °C 26.8 °F /  -2.9 °C 29.98 in /  1015.1 hPa WNW 7.0 mph /  11.3 km/h 7.0 mph /  11.3 km/h 40 % 0.00 in /  0 mm
13:39 49.5 °F /  9.7 °C 26.1 °F /  -3.3 °C 29.98 in /  1015.1 hPa NNW 4.6 mph /  7.4 km/h 4.6 mph /  7.4 km/h 40 % 0.00 in /  0 mm
13:44 49.2 °F /  9.6 °C 27.1 °F /  -2.7 °C 29.98 in /  1015.1 hPa NNE 3.5 mph /  5.6 km/h 3.5 mph /  5.6 km/h 42 % 0.00 in /  0 mm
13:49 49.5 °F /  9.7 °C 27.3 °F /  -2.6 °C 29.98 in /  1015.1 hPa NW 1.2 mph /  1.9 km/h 1.2 mph /  1.9 km/h 42 % 0.00 in /  0 mm
13:54 50.4 °F /  10.2 °C 27.0 °F /  -2.8 °C 29.98 in /  1015.1 hPa WNW 2.3 mph /  3.7 km/h 2.3 mph /  3.7 km/h 40 % 0.00 in /  0 mm
13:59 50.5 °F /  10.3 °C 27.0 °F /  -2.8 °C 29.98 in /  1015.1 hPa NW 3.5 mph /  5.6 km/h 3.5 mph /  5.6 km/h 40 % 0.00 in /  0 mm
14:04 50.2 °F /  10.1 °C 26.2 °F /  -3.2 °C 29.98 in /  1015.1 hPa WNW 3.5 mph /  5.6 km/h 3.5 mph /  5.6 km/h 39 % 0.00 in /  0 mm
14:09 51.0 °F /  10.6 °C 27.5 °F /  -2.5 °C 29.98 in /  1015.1 hPa NNW 4.0 mph /  6.4 km/h 4.0 mph /  6.4 km/h 40 % 0.00 in /  0 mm
14:14 51.0 °F /  10.6 °C 26.9 °F /  -2.8 °C 29.98 in /  1015.1 hPa West 5.0 mph /  8 km/h 5.0 mph /  8 km/h 39 % 0.00 in /  0 mm
14:19 51.4 °F /  10.8 °C 27.2 °F /  -2.7 °C 29.98 in /  1015.1 hPa NNW 5.8 mph /  9.3 km/h 5.8 mph /  9.3 km/h 39 % 0.00 in /  0 mm
14:24 52.1 °F /  11.2 °C 26.6 °F /  -3 °C 29.98 in /  1015.1 hPa WNW 5.8 mph /  9.3 km/h 5.8 mph /  9.3 km/h 37 % 0.00 in /  0 mm
14:29 52.3 °F /  11.3 °C 26.8 °F /  -2.9 °C 29.98 in /  1015.1 hPa NW 6.0 mph /  9.7 km/h 6.0 mph /  9.7 km/h 37 % 0.00 in /  0 mm
14:34 52.7 °F /  11.5 °C 27.8 °F /  -2.3 °C 29.98 in /  1015.1 hPa WNW 6.9 mph /  11.1 km/h 6.9 mph /  11.1 km/h 38 % 0.00 in /  0 mm
14:39 52.4 °F /  11.3 °C 26.9 °F /  -2.8 °C 29.98 in /  1015.1 hPa SW 3.5 mph /  5.6 km/h 3.5 mph /  5.6 km/h 37 % 0.00 in /  0 mm
14:44 52.1 °F /  11.2 °C 27.9 °F /  -2.3 °C 29.97 in /  1014.8 hPa WNW 8.1 mph /  13 km/h 8.1 mph /  13 km/h 39 % 0.00 in /  0 mm
14:49 52.4 °F /  11.3 °C 26.9 °F /  -2.8 °C 29.97 in /  1014.8 hPa WNW 8.1 mph /  13 km/h 8.1 mph /  13 km/h 37 % 0.00 in /  0 mm
14:54 51.9 °F /  11.1 °C 25.8 °F /  -3.4 °C 29.97 in /  1014.8 hPa NW 5.8 mph /  9.3 km/h 5.8 mph /  9.3 km/h 36 % 0.00 in /  0 mm
14:59 51.4 °F /  10.8 °C 26.0 °F /  -3.3 °C 29.98 in /  1015.1 hPa WNW 5.8 mph /  9.3 km/h 5.8 mph /  9.3 km/h 37 % 0.00 in /  0 mm
15:04 51.7 °F /  10.9 °C 24.9 °F /  -3.9 °C 29.97 in /  1014.8 hPa NNW 3.5 mph /  5.6 km/h 3.5 mph /  5.6 km/h 35 % 0.00 in /  0 mm
15:09 52.2 °F /  11.2 °C 29.8 °F /  -1.2 °C 29.98 in /  1015.1 hPa West 18.4 mph /  29.6 km/h 18.4 mph /  29.6 km/h 42 % 0.00 in /  0 mm
15:14 51.8 °F /  11 °C 31.1 °F /  -0.5 °C 29.99 in /  1015.5 hPa NW 5.8 mph /  9.3 km/h 5.8 mph /  9.3 km/h 45 % 0.00 in /  0 mm
15:19 51.2 °F /  10.7 °C 31.6 °F /  -0.2 °C 29.99 in /  1015.5 hPa WNW 9.2 mph /  14.8 km/h 9.2 mph /  14.8 km/h 47 % 0.00 in /  0 mm
15:24 50.3 °F /  10.2 °C 31.3 °F /  -0.4 °C 29.99 in /  1015.5 hPa West 10.4 mph /  16.7 km/h 10.4 mph /  16.7 km/h 48 % 0.00 in /  0 mm
15:29 49.6 °F /  9.8 °C 32.7 °F /  0.4 °C 29.99 in /  1015.5 hPa NNW 6.9 mph /  11.1 km/h 6.9 mph /  11.1 km/h 52 % 0.00 in /  0 mm
15:34 49.3 °F /  9.6 °C 33.3 °F /  0.7 °C 29.99 in /  1015.5 hPa WNW 3.5 mph /  5.6 km/h 3.5 mph /  5.6 km/h 54 % 0.00 in /  0 mm
15:39 48.6 °F /  9.2 °C 33.1 °F /  0.6 °C 30.00 in /  1015.8 hPa WNW 4.6 mph /  7.4 km/h 4.6 mph /  7.4 km/h 55 % 0.00 in /  0 mm
15:44 48.1 °F /  8.9 °C 32.7 °F /  0.4 °C 30.00 in /  1015.8 hPa WSW 5.0 mph /  8 km/h 5.0 mph /  8 km/h 55 % 0.00 in /  0 mm
15:49 48.0 °F /  8.9 °C 31.2 °F /  -0.4 °C 30.00 in /  1015.8 hPa East 4.6 mph /  7.4 km/h 4.6 mph /  7.4 km/h 52 % 0.00 in /  0 mm
15:54 48.2 °F /  9 °C 31.4 °F /  -0.3 °C 30.00 in /  1015.8 hPa NNW 5.0 mph /  8 km/h 5.0 mph /  8 km/h 52 % 0.00 in /  0 mm
15:59 48.3 °F /  9.1 °C 31.5 °F /  -0.3 °C 30.00 in /  1015.8 hPa SE 3.5 mph /  5.6 km/h 3.5 mph /  5.6 km/h 52 % 0.00 in /  0 mm
16:04 48.5 °F /  9.2 °C 31.7 °F /  -0.2 °C 30.00 in /  1015.8 hPa West 5.8 mph /  9.3 km/h 5.8 mph /  9.3 km/h 52 % 0.00 in /  0 mm
16:09 48.5 °F /  9.2 °C 32.1 °F /  0.1 °C 30.00 in /  1015.8 hPa ESE 3.5 mph /  5.6 km/h 3.5 mph /  5.6 km/h 53 % 0.00 in /  0 mm
16:14 48.5 °F /  9.2 °C 32.1 °F /  0.1 °C 29.99 in /  1015.5 hPa East 2.0 mph /  3.2 km/h 2.0 mph /  3.2 km/h 53 % 0.00 in /  0 mm
16:19 48.6 °F /  9.2 °C 32.2 °F /  0.1 °C 29.99 in /  1015.5 hPa Calm   0.7 mph /  1.1 km/h 53 % 0.00 in /  0 mm
16:24 48.7 °F /  9.3 °C 31.4 °F /  -0.3 °C 30.00 in /  1015.8 hPa NW 1.2 mph /  1.9 km/h   51 % 0.00 in /  0 mm
16:29 48.6 °F /  9.2 °C 31.8 °F /  -0.1 °C 30.00 in /  1015.8 hPa East 5.8 mph /  9.3 km/h 5.8 mph /  9.3 km/h 52 % 0.00 in /  0 mm
16:34 48.5 °F /  9.2 °C 31.7 °F /  -0.2 °C 30.00 in /  1015.8 hPa East 3.0 mph /  4.8 km/h 3.0 mph /  4.8 km/h 52 % 0.00 in /  0 mm
16:39 48.3 °F /  9.1 °C 30.5 °F /  -0.8 °C 30.00 in /  1015.8 hPa NW 1.2 mph /  1.9 km/h 1.2 mph /  1.9 km/h 50 % 0.00 in /  0 mm
16:44 48.2 °F /  9 °C 31.4 °F /  -0.3 °C 30.00 in /  1015.8 hPa NW 1.2 mph /  1.9 km/h   52 % 0.00 in /  0 mm
16:49 48.0 °F /  8.9 °C 30.7 °F /  -0.7 °C 30.00 in /  1015.8 hPa East 3.5 mph /  5.6 km/h 3.5 mph /  5.6 km/h 51 % 0.00 in /  0 mm
16:54 47.9 °F /  8.8 °C 30.6 °F /  -0.8 °C 30.00 in /  1015.8 hPa WNW 2.3 mph /  3.7 km/h 2.3 mph /  3.7 km/h 51 % 0.00 in /  0 mm
16:59 47.8 °F /  8.8 °C 30.0 °F /  -1.1 °C 30.00 in /  1015.8 hPa SE 2.3 mph /  3.7 km/h 2.3 mph /  3.7 km/h 50 % 0.00 in /  0 mm
17:04 47.8 °F /  8.8 °C 30.0 °F /  -1.1 °C 30.00 in /  1015.8 hPa Calm   0.1 mph /  0.2 km/h 50 % 0.00 in /  0 mm
17:09 47.7 °F /  8.7 °C 29.5 °F /  -1.4 °C 30.00 in /  1015.8 hPa Calm     49 % 0.00 in /  0 mm
17:14 47.6 °F /  8.7 °C 29.9 °F /  -1.2 °C 30.00 in /  1015.8 hPa WNW 1.2 mph /  1.9 km/h   50 % 0.00 in /  0 mm
17:19 47.4 °F /  8.6 °C 30.2 °F /  -1 °C 30.00 in /  1015.8 hPa Calm     51 % 0.00 in /  0 mm
17:24 47.3 °F /  8.5 °C 29.6 °F /  -1.3 °C 30.00 in /  1015.8 hPa SE 1.2 mph /  1.9 km/h   50 % 0.00 in /  0 mm
17:29 47.0 °F /  8.3 °C 29.3 °F /  -1.5 °C 30.00 in /  1015.8 hPa SE 1.2 mph /  1.9 km/h   50 % 0.00 in /  0 mm
17:35 46.8 °F /  8.2 °C 29.1 °F /  -1.6 °C 30.00 in /  1015.8 hPa WNW 1.2 mph /  1.9 km/h 1.2 mph /  1.9 km/h 50 % 0.00 in /  0 mm
17:40 46.7 °F /  8.2 °C 29.5 °F /  -1.4 °C 30.00 in /  1015.8 hPa Calm   0.1 mph /  0.2 km/h 51 % 0.00 in /  0 mm
17:45 46.5 °F /  8.1 °C 29.3 °F /  -1.5 °C 30.00 in /  1015.8 hPa ENE 1.2 mph /  1.9 km/h   51 % 0.00 in /  0 mm
17:50 46.3 °F /  7.9 °C 29.6 °F /  -1.3 °C 30.01 in /  1016.1 hPa Calm     52 % 0.00 in /  0 mm
17:55 45.9 °F /  7.7 °C 29.7 °F /  -1.3 °C 30.01 in /  1016.1 hPa Calm     53 % 0.00 in /  0 mm
18:00 45.5 °F /  7.5 °C 29.8 °F /  -1.2 °C 30.01 in /  1016.1 hPa Calm     54 % 0.00 in /  0 mm
18:05 45.1 °F /  7.3 °C 30.8 °F /  -0.7 °C 30.01 in /  1016.1 hPa Calm     57 % 0.00 in /  0 mm
18:10 44.6 °F /  7 °C 31.1 °F /  -0.5 °C 30.01 in /  1016.1 hPa Calm     59 % 0.00 in /  0 mm
18:15 43.9 °F /  6.6 °C 32.5 °F /  0.3 °C 30.02 in /  1016.5 hPa Calm     64 % 0.00 in /  0 mm
18:20 43.2 °F /  6.2 °C 31.8 °F /  -0.1 °C 30.02 in /  1016.5 hPa Calm     64 % 0.00 in /  0 mm
18:25 42.8 °F /  6 °C 32.2 °F /  0.1 °C 30.02 in /  1016.5 hPa Calm     66 % 0.00 in /  0 mm
18:30 42.4 °F /  5.8 °C 32.2 °F /  0.1 °C 30.02 in /  1016.5 hPa Calm     67 % 0.00 in /  0 mm
18:35 41.9 °F /  5.5 °C 31.7 °F /  -0.2 °C 30.02 in /  1016.5 hPa Calm     67 % 0.00 in /  0 mm
18:40 41.4 °F /  5.2 °C 32.3 °F /  0.2 °C 30.02 in /  1016.5 hPa Calm     70 % 0.00 in /  0 mm
18:45 41.1 °F /  5.1 °C 32.1 °F /  0.1 °C 30.03 in /  1016.8 hPa Calm     70 % 0.00 in /  0 mm
18:50 40.9 °F /  4.9 °C 31.9 °F /  -0.1 °C 30.03 in /  1016.8 hPa Calm     70 % 0.00 in /  0 mm
18:55 40.7 °F /  4.8 °C 31.7 °F /  -0.2 °C 30.03 in /  1016.8 hPa Calm     70 % 0.00 in /  0 mm
19:00 40.8 °F /  4.9 °C 31.8 °F /  -0.1 °C 30.03 in /  1016.8 hPa Calm     70 % 0.00 in /  0 mm
19:05 40.8 °F /  4.9 °C 32.1 °F /  0.1 °C 30.04 in /  1017.2 hPa Calm     71 % 0.00 in /  0 mm
19:10 40.8 °F /  4.9 °C 31.8 °F /  -0.1 °C 30.04 in /  1017.2 hPa Calm     70 % 0.00 in /  0 mm
19:15 41.1 °F /  5.1 °C 31.7 °F /  -0.2 °C 30.04 in /  1017.2 hPa Calm     69 % 0.00 in /  0 mm
19:20 41.5 °F /  5.3 °C 31.7 °F /  -0.2 °C 30.04 in /  1017.2 hPa Calm     68 % 0.00 in /  0 mm
19:25 41.7 °F /  5.4 °C 31.2 °F /  -0.4 °C 30.04 in /  1017.2 hPa NW 1.2 mph /  1.9 km/h   66 % 0.00 in /  0 mm
19:30 41.8 °F /  5.4 °C 31.3 °F /  -0.4 °C 30.04 in /  1017.2 hPa Calm     66 % 0.00 in /  0 mm
19:35 41.3 °F /  5.2 °C 31.9 °F /  -0.1 °C 30.04 in /  1017.2 hPa Calm     69 % 0.00 in /  0 mm
19:40 40.7 °F /  4.8 °C 32.0 °F /  0 °C 30.04 in /  1017.2 hPa Calm     71 % 0.00 in /  0 mm
19:45 40.1 °F /  4.5 °C 32.1 °F /  0.1 °C 30.05 in /  1017.5 hPa Calm     73 % 0.00 in /  0 mm
19:50 39.4 °F /  4.1 °C 31.8 °F /  -0.1 °C 30.05 in /  1017.5 hPa Calm     74 % 0.00 in /  0 mm
19:55 38.9 °F /  3.8 °C 31.6 °F /  -0.2 °C 30.05 in /  1017.5 hPa Calm     75 % 0.00 in /  0 mm
20:00 38.9 °F /  3.8 °C 31.6 °F /  -0.2 °C 30.05 in /  1017.5 hPa Calm     75 % 0.00 in /  0 mm
20:05 38.9 °F /  3.8 °C 31.3 °F /  -0.4 °C 30.05 in /  1017.5 hPa Calm     74 % 0.00 in /  0 mm
20:10 38.9 °F /  3.8 °C 31.3 °F /  -0.4 °C 30.05 in /  1017.5 hPa Calm     74 % 0.00 in /  0 mm
20:15 38.7 °F /  3.7 °C 31.5 °F /  -0.3 °C 30.06 in /  1017.8 hPa Calm     75 % 0.00 in /  0 mm
20:20 38.7 °F /  3.7 °C 30.8 °F /  -0.7 °C 30.06 in /  1017.8 hPa Calm     73 % 0.00 in /  0 mm
20:25 38.9 °F /  3.8 °C 31.0 °F /  -0.6 °C 30.06 in /  1017.8 hPa Calm     73 % 0.00 in /  0 mm
20:30 38.7 °F /  3.7 °C 30.8 °F /  -0.7 °C 30.06 in /  1017.8 hPa Calm     73 % 0.00 in /  0 mm
20:35 38.5 °F /  3.6 °C 30.9 °F /  -0.6 °C 30.06 in /  1017.8 hPa NW 2.0 mph /  3.2 km/h 2.0 mph /  3.2 km/h 74 % 0.00 in /  0 mm
20:40 37.6 °F /  3.1 °C 30.7 °F /  -0.7 °C 30.07 in /  1018.2 hPa Calm     76 % 0.00 in /  0 mm
20:45 37.7 °F /  3.2 °C 31.1 °F /  -0.5 °C 30.07 in /  1018.2 hPa Calm     77 % 0.00 in /  0 mm
20:50 37.9 °F /  3.3 °C 30.7 °F /  -0.7 °C 30.07 in /  1018.2 hPa Calm     75 % 0.00 in /  0 mm
20:55 37.7 °F /  3.2 °C 30.8 °F /  -0.7 °C 30.07 in /  1018.2 hPa WNW 1.2 mph /  1.9 km/h   76 % 0.00 in /  0 mm
21:00 37.5 °F /  3.1 °C 30.6 °F /  -0.8 °C 30.07 in /  1018.2 hPa Calm     76 % 0.00 in /  0 mm
21:05 37.5 °F /  3.1 °C 30.6 °F /  -0.8 °C 30.07 in /  1018.2 hPa Calm     76 % 0.00 in /  0 mm
21:10 37.8 °F /  3.2 °C 30.9 °F /  -0.6 °C 30.08 in /  1018.5 hPa Calm     76 % 0.00 in /  0 mm
21:15 38.0 °F /  3.3 °C 30.8 °F /  -0.7 °C 30.08 in /  1018.5 hPa WNW 1.2 mph /  1.9 km/h   75 % 0.00 in /  0 mm
21:20 38.0 °F /  3.3 °C 30.8 °F /  -0.7 °C 30.08 in /  1018.5 hPa Calm     75 % 0.00 in /  0 mm
21:25 37.8 °F /  3.2 °C 30.6 °F /  -0.8 °C 30.09 in /  1018.8 hPa Calm     75 % 0.00 in /  0 mm
21:30 37.6 °F /  3.1 °C 30.7 °F /  -0.7 °C 30.09 in /  1018.8 hPa Calm     76 % 0.00 in /  0 mm
21:35 37.2 °F /  2.9 °C 30.7 °F /  -0.7 °C 30.09 in /  1018.8 hPa Calm     77 % 0.00 in /  0 mm
21:40 36.9 °F /  2.7 °C 30.4 °F /  -0.9 °C 30.09 in /  1018.8 hPa Calm     77 % 0.00 in /  0 mm
21:45 36.9 °F /  2.7 °C 30.4 °F /  -0.9 °C 30.10 in /  1019.2 hPa Calm     77 % 0.00 in /  0 mm
21:50 37.0 °F /  2.8 °C 30.5 °F /  -0.8 °C 30.10 in /  1019.2 hPa Calm     77 % 0.00 in /  0 mm
21:55 36.9 °F /  2.7 °C 30.4 °F /  -0.9 °C 30.10 in /  1019.2 hPa Calm     77 % 0.00 in /  0 mm
22:00 36.9 °F /  2.7 °C 30.7 °F /  -0.7 °C 30.10 in /  1019.2 hPa Calm     78 % 0.00 in /  0 mm
22:05 36.8 °F /  2.7 °C 30.3 °F /  -0.9 °C 30.10 in /  1019.2 hPa Calm     77 % 0.00 in /  0 mm
22:10 36.6 °F /  2.6 °C 30.1 °F /  -1.1 °C 30.10 in /  1019.2 hPa Calm     77 % 0.00 in /  0 mm
22:15 36.4 °F /  2.4 °C 30.2 °F /  -1 °C 30.11 in /  1019.5 hPa Calm     78 % 0.00 in /  0 mm
22:20 36.1 °F /  2.3 °C 29.9 °F /  -1.2 °C 30.11 in /  1019.5 hPa Calm     78 % 0.00 in /  0 mm
22:25 35.9 °F /  2.2 °C 29.7 °F /  -1.3 °C 30.11 in /  1019.5 hPa Calm     78 % 0.00 in /  0 mm
22:30 35.6 °F /  2 °C 29.4 °F /  -1.4 °C 30.11 in /  1019.5 hPa Calm     78 % 0.00 in /  0 mm
22:35 35.1 °F /  1.7 °C 29.2 °F /  -1.6 °C 30.12 in /  1019.9 hPa Calm     79 % 0.00 in /  0 mm
22:40 34.5 °F /  1.4 °C 29.0 °F /  -1.7 °C 30.12 in /  1019.9 hPa Calm     80 % 0.00 in /  0 mm
22:45 34.3 °F /  1.3 °C 29.4 °F /  -1.4 °C 30.12 in /  1019.9 hPa Calm     82 % 0.00 in /  0 mm
22:50 34.1 °F /  1.2 °C 29.2 °F /  -1.6 °C 30.12 in /  1019.9 hPa Calm     82 % 0.00 in /  0 mm
22:55 33.7 °F /  0.9 °C 28.8 °F /  -1.8 °C 30.12 in /  1019.9 hPa Calm     82 % 0.00 in /  0 mm
23:00 33.3 °F /  0.7 °C 28.7 °F /  -1.8 °C 30.12 in /  1019.9 hPa Calm     83 % 0.00 in /  0 mm
23:05 32.9 °F /  0.5 °C 28.6 °F /  -1.9 °C 30.13 in /  1020.2 hPa Calm     84 % 0.00 in /  0 mm
23:10 32.9 °F /  0.5 °C 28.9 °F /  -1.7 °C 30.13 in /  1020.2 hPa Calm     85 % 0.00 in /  0 mm
23:15 33.1 °F /  0.6 °C 29.1 °F /  -1.6 °C 30.14 in /  1020.5 hPa Calm     85 % 0.00 in /  0 mm
23:20 32.9 °F /  0.5 °C 28.6 °F /  -1.9 °C 30.13 in /  1020.2 hPa Calm     84 % 0.00 in /  0 mm
23:25 32.7 °F /  0.4 °C 28.7 °F /  -1.8 °C 30.14 in /  1020.5 hPa Calm     85 % 0.00 in /  0 mm
23:30 32.5 °F /  0.3 °C 28.5 °F /  -1.9 °C 30.14 in /  1020.5 hPa Calm     85 % 0.00 in /  0 mm
23:35 32.3 °F /  0.2 °C 28.6 °F /  -1.9 °C 30.14 in /  1020.5 hPa Calm     86 % 0.00 in /  0 mm
23:40 32.3 °F /  0.2 °C 28.6 °F /  -1.9 °C 30.14 in /  1020.5 hPa Calm     86 % 0.00 in /  0 mm
23:45 32.3 °F /  0.2 °C 28.9 °F /  -1.7 °C 30.14 in /  1020.5 hPa Calm     87 % 0.00 in /  0 mm
23:50 32.2 °F /  0.1 °C 28.8 °F /  -1.8 °C 30.15 in /  1020.9 hPa NW 2.3 mph /  3.7 km/h 2.3 mph /  3.7 km/h 87 % 0.00 in /  0 mm
23:55 32.3 °F /  0.2 °C 28.6 °F /  -1.9 °C 30.15 in /  1020.9 hPa Calm     86 % 0.00 in /  0 mm
Park Place, Exeter, Tulare County, California, USA
Compliments of Weather Underground - 2.75 mb